createdAt,value
2022-08-05T00:00:09.292Z,23.31
2022-08-05T00:03:07.689Z,23.30
2022-08-05T00:06:20.234Z,23.30
2022-08-05T00:09:12.852Z,23.28
2022-08-05T00:12:02.931Z,23.25
2022-08-05T00:14:53.022Z,23.23
2022-08-05T00:17:41.720Z,23.20
2022-08-05T00:20:29.715Z,23.17
2022-08-05T00:23:31.054Z,23.15
2022-08-05T00:26:27.403Z,23.12
2022-08-05T00:29:15.548Z,23.10
2022-08-05T00:32:13.194Z,23.08
2022-08-05T00:35:06.793Z,23.06
2022-08-05T00:37:56.053Z,23.03
2022-08-05T00:40:51.935Z,23.00
2022-08-05T00:43:46.918Z,22.98
2022-08-05T00:46:42.489Z,22.94
2022-08-05T00:49:51.505Z,22.92
2022-08-05T00:52:40.082Z,22.88
2022-08-05T00:55:42.636Z,22.87
2022-08-05T00:58:31.869Z,22.87
2022-08-05T01:01:24.954Z,22.84
2022-08-05T01:04:29.935Z,22.80
2022-08-05T01:07:18.200Z,22.75
2022-08-05T01:10:09.625Z,22.70
2022-08-05T01:13:13.238Z,22.66
2022-08-05T01:16:26.097Z,22.62
2022-08-05T01:19:36.820Z,22.59
2022-08-05T01:23:23.713Z,22.57
2022-08-05T01:26:48.428Z,22.59
2022-08-05T01:29:47.352Z,22.63
2022-08-05T01:32:39.822Z,22.66
2022-08-05T01:35:51.698Z,22.70
2022-08-05T01:38:43.143Z,22.72
2022-08-05T01:41:37.585Z,22.74
2022-08-05T01:44:35.295Z,22.77
2022-08-05T01:47:39.568Z,22.78
2022-08-05T01:50:39.215Z,22.79
2022-08-05T01:53:58.047Z,22.80
2022-08-05T01:58:10.983Z,22.79
2022-08-05T01:59:55.074Z,22.77
2022-08-05T02:03:03.696Z,22.73
2022-08-05T02:05:57.854Z,22.70
2022-08-05T02:08:55.201Z,22.67
2022-08-05T02:12:22.829Z,22.62
2022-08-05T02:15:19.822Z,22.57
2022-08-05T02:18:33.085Z,22.52
2022-08-05T02:21:30.773Z,22.47
2022-08-05T02:24:39.362Z,22.43
2022-08-05T02:27:57.932Z,22.41
2022-08-05T02:30:56.660Z,22.36
2022-08-05T02:33:57.513Z,22.30
2022-08-05T02:36:57.607Z,22.23
2022-08-05T02:39:47.862Z,22.17
2022-08-05T02:42:40.371Z,22.10
2022-08-05T02:45:51.450Z,22.04
2022-08-05T02:48:39.285Z,21.99
2022-08-05T02:52:03.917Z,21.95
2022-08-05T02:54:42.805Z,21.92
2022-08-05T02:58:10.886Z,21.90
2022-08-05T03:00:51.308Z,21.88
2022-08-05T03:04:02.031Z,21.86
2022-08-05T03:06:55.331Z,21.82
2022-08-05T03:09:51.592Z,21.80
2022-08-05T03:12:41.146Z,21.76
2022-08-05T03:15:29.257Z,21.71
2022-08-05T03:18:17.547Z,21.67
2022-08-05T03:21:13.312Z,21.62
2022-08-05T03:24:03.611Z,21.57
2022-08-05T03:26:52.769Z,21.52
2022-08-05T03:29:45.378Z,21.48
2022-08-05T03:32:51.927Z,21.43
2022-08-05T03:35:41.669Z,21.39
2022-08-05T03:38:33.181Z,21.35
2022-08-05T03:41:23.644Z,21.32
2022-08-05T03:44:12.166Z,21.29
2022-08-05T03:47:00.494Z,21.26
2022-08-05T03:49:52.448Z,21.25
2022-08-05T03:54:59.250Z,21.25
2022-08-05T03:56:38.756Z,21.25
2022-08-05T03:59:54.815Z,21.25
2022-08-05T04:02:58.331Z,21.26
2022-08-05T04:05:47.855Z,21.28
2022-08-05T04:08:37.043Z,21.29
2022-08-05T04:11:50.541Z,21.31
2022-08-05T04:14:36.228Z,21.32
2022-08-05T04:17:25.006Z,21.34
2022-08-05T04:20:32.784Z,21.38
2022-08-05T04:23:57.329Z,21.42
2022-08-05T04:26:34.291Z,21.45
2022-08-05T04:29:25.066Z,21.50
2022-08-05T04:32:15.707Z,21.55
2022-08-05T04:35:19.614Z,21.61
2022-08-05T04:38:08.251Z,21.67
2022-08-05T04:40:56.490Z,21.75
2022-08-05T04:43:48.066Z,21.83
2022-08-05T04:46:40.108Z,21.93
2022-08-05T04:49:38.894Z,22.02
2022-08-05T04:52:36.650Z,22.15
2022-08-05T04:56:14.587Z,22.26
2022-08-05T04:58:33.224Z,22.40
2022-08-05T05:01:33.634Z,22.52
2022-08-05T05:04:29.308Z,22.66
2022-08-05T05:07:17.932Z,22.77
2022-08-05T05:10:07.146Z,22.89
2022-08-05T05:12:55.251Z,23.00
2022-08-05T05:15:57.134Z,23.14
2022-08-05T05:19:16.414Z,23.39
2022-08-05T05:21:58.118Z,24.18
2022-08-05T05:24:57.082Z,25.53
2022-08-05T05:27:53.464Z,27.16
2022-08-05T05:30:41.691Z,28.79
2022-08-05T05:33:30.448Z,30.17
2022-08-05T05:36:38.575Z,31.38
2022-08-05T05:39:34.579Z,32.25
2022-08-05T05:42:24.173Z,33.13
2022-08-05T05:45:12.413Z,34.09
2022-08-05T05:48:09.018Z,35.11
2022-08-05T05:50:57.096Z,35.80
2022-08-05T05:53:54.141Z,36.08
2022-08-05T05:56:47.377Z,36.30
2022-08-05T05:59:40.385Z,36.69
2022-08-05T06:02:36.708Z,37.16
2022-08-05T06:05:25.866Z,37.57
2022-08-05T06:08:15.269Z,38.05
2022-08-05T06:11:20.328Z,38.13
2022-08-05T06:14:08.301Z,37.91
2022-08-05T06:16:56.858Z,37.87
2022-08-05T06:19:56.851Z,38.01
2022-08-05T06:22:47.992Z,38.22
2022-08-05T06:26:12.943Z,38.68
2022-08-05T06:28:43.691Z,39.09
2022-08-05T06:31:34.376Z,39.36
2022-08-05T06:34:22.527Z,39.49
2022-08-05T06:37:16.919Z,39.61
2022-08-05T06:40:27.723Z,39.59
2022-08-05T06:43:59.693Z,39.75
2022-08-05T06:46:30.320Z,39.68
2022-08-05T06:49:18.810Z,39.32
2022-08-05T06:52:37.277Z,39.04
2022-08-05T06:55:18.059Z,38.96
2022-08-05T06:58:20.250Z,39.18
2022-08-05T07:01:14.697Z,39.59
2022-08-05T07:04:08.709Z,39.85
2022-08-05T07:06:57.237Z,40.21
2022-08-05T07:09:45.940Z,40.75
2022-08-05T07:13:02.685Z,41.13
2022-08-05T07:16:08.907Z,41.25
2022-08-05T07:19:00.395Z,41.15
2022-08-05T07:22:00.760Z,41.13
2022-08-05T07:24:52.645Z,41.36
2022-08-05T07:27:58.692Z,41.40
2022-08-05T07:30:52.772Z,41.22
2022-08-05T07:33:43.323Z,41.01
2022-08-05T07:36:33.690Z,41.09
2022-08-05T07:40:03.593Z,41.29
2022-08-05T07:42:33.473Z,41.20
2022-08-05T07:45:44.063Z,40.88
2022-08-05T07:49:01.499Z,40.67
2022-08-05T07:51:40.848Z,40.77
2022-08-05T07:54:41.158Z,40.51
2022-08-05T07:57:52.259Z,40.03
2022-08-05T08:00:44.900Z,39.92
2022-08-05T08:03:45.019Z,40.17
2022-08-05T08:06:33.655Z,40.17
2022-08-05T08:09:24.344Z,40.21
2022-08-05T08:12:33.541Z,40.37
2022-08-05T08:16:35.915Z,40.48
2022-08-05T08:18:33.932Z,40.38
2022-08-05T08:21:22.015Z,40.05
2022-08-05T08:24:14.083Z,39.66
2022-08-05T08:27:03.126Z,39.64
2022-08-05T08:30:05.125Z,40.18
2022-08-05T08:33:13.714Z,40.67
2022-08-05T08:36:37.510Z,40.88
2022-08-05T08:39:15.641Z,41.06
2022-08-05T08:42:10.739Z,40.93
2022-08-05T08:45:19.919Z,40.98
2022-08-05T08:48:36.137Z,40.77
2022-08-05T08:52:05.671Z,40.22
2022-08-05T08:54:42.279Z,39.96
2022-08-05T08:57:48.386Z,39.76
2022-08-05T09:00:41.415Z,39.56
2022-08-05T09:03:45.069Z,39.18
2022-08-05T09:06:36.300Z,38.98
2022-08-05T09:09:24.377Z,38.79
2022-08-05T09:12:20.152Z,38.49
2022-08-05T09:15:18.510Z,38.68
2022-08-05T09:18:09.612Z,38.88
2022-08-05T09:21:01.276Z,39.23
2022-08-05T09:24:04.834Z,39.41
2022-08-05T09:26:58.819Z,39.65
2022-08-05T09:29:47.707Z,39.83
2022-08-05T09:32:51.879Z,39.92
2022-08-05T09:35:56.023Z,39.76
2022-08-05T09:39:18.328Z,39.66
2022-08-05T09:42:17.371Z,40.10
2022-08-05T09:46:04.933Z,40.49
2022-08-05T09:48:32.494Z,40.37
2022-08-05T09:51:38.361Z,40.22
2022-08-05T09:54:31.872Z,40.11
2022-08-05T09:57:45.406Z,39.88
2022-08-05T10:00:35.005Z,39.86
2022-08-05T10:03:23.654Z,39.78
2022-08-05T10:06:34.299Z,40.00
2022-08-05T10:09:28.438Z,40.21
2022-08-05T10:12:18.589Z,40.43
2022-08-05T10:15:25.835Z,40.71
2022-08-05T10:18:22.476Z,41.03
2022-08-05T10:21:15.590Z,41.31
2022-08-05T10:24:11.074Z,41.43
2022-08-05T10:27:01.199Z,41.56
2022-08-05T10:30:06.804Z,41.76
2022-08-05T10:33:02.916Z,42.14
2022-08-05T10:35:59.223Z,42.28
2022-08-05T10:38:53.271Z,41.94
2022-08-05T10:42:11.433Z,41.61
2022-08-05T10:45:01.051Z,41.12
2022-08-05T10:48:29.457Z,40.56
2022-08-05T10:51:00.740Z,40.18
2022-08-05T10:53:51.147Z,40.04
2022-08-05T10:56:52.902Z,39.90
2022-08-05T11:00:02.260Z,40.00
2022-08-05T11:03:24.452Z,40.05
2022-08-05T11:06:17.886Z,40.07
2022-08-05T11:09:32.073Z,40.41
2022-08-05T11:12:37.278Z,40.62
2022-08-05T11:15:59.465Z,40.52
2022-08-05T11:18:46.928Z,40.33
2022-08-05T11:21:48.675Z,40.35
2022-08-05T11:24:38.816Z,40.00
2022-08-05T11:27:51.826Z,39.40
2022-08-05T11:30:58.775Z,38.96
2022-08-05T11:33:47.868Z,38.81
2022-08-05T11:36:47.407Z,38.73
2022-08-05T11:40:00.284Z,38.53
2022-08-05T11:42:51.780Z,38.39
2022-08-05T11:46:23.374Z,38.26
2022-08-05T11:48:58.337Z,37.95
2022-08-05T11:51:53.860Z,37.40
2022-08-05T11:54:43.610Z,36.93
2022-08-05T11:58:10.690Z,36.45
2022-08-05T12:01:03.853Z,35.91
2022-08-05T12:03:57.391Z,35.46
2022-08-05T12:06:48.715Z,35.02
2022-08-05T12:09:53.319Z,34.62
2022-08-05T12:12:58.305Z,34.33
2022-08-05T12:15:49.903Z,34.02
2022-08-05T12:18:39.977Z,33.76
2022-08-05T12:21:34.188Z,33.49
2022-08-05T12:24:27.137Z,33.22
2022-08-05T12:27:25.466Z,33.08
2022-08-05T12:30:15.285Z,32.96
2022-08-05T12:33:07.462Z,32.87
2022-08-05T12:36:12.797Z,32.86
2022-08-05T12:39:01.861Z,32.85
2022-08-05T12:42:02.444Z,32.89
2022-08-05T12:44:50.445Z,32.97
2022-08-05T12:47:43.329Z,33.01
2022-08-05T12:52:11.050Z,33.00
2022-08-05T12:54:26.634Z,33.06
2022-08-05T12:57:23.253Z,33.14
2022-08-05T13:02:00.259Z,33.16
2022-08-05T13:03:43.158Z,33.19
2022-08-05T13:06:37.101Z,33.32
2022-08-05T13:09:28.006Z,33.33
2022-08-05T13:12:18.921Z,33.30
2022-08-05T13:15:13.868Z,33.30
2022-08-05T13:18:07.184Z,33.26
2022-08-05T13:20:55.617Z,33.25
2022-08-05T13:23:50.961Z,33.31
2022-08-05T13:26:40.865Z,33.35
2022-08-05T13:29:37.377Z,33.27
2022-08-05T13:32:30.682Z,33.18
2022-08-05T13:35:43.048Z,33.22
2022-08-05T13:38:36.274Z,33.32
2022-08-05T13:41:35.916Z,33.34
2022-08-05T13:44:25.960Z,33.32
2022-08-05T13:47:34.658Z,33.32
2022-08-05T13:50:23.073Z,33.40
2022-08-05T13:53:15.629Z,33.54
2022-08-05T13:56:04.989Z,33.62
2022-08-05T13:59:21.110Z,33.62
2022-08-05T14:02:20.059Z,33.66
2022-08-05T14:05:48.074Z,33.68
2022-08-05T14:08:32.506Z,33.79
2022-08-05T14:11:22.189Z,33.82
2022-08-05T14:14:10.439Z,33.93
2022-08-05T14:17:00.361Z,33.99
2022-08-05T14:19:56.108Z,34.07
2022-08-05T14:22:50.073Z,34.05
2022-08-05T14:25:38.302Z,33.94
2022-08-05T14:28:33.817Z,33.78
2022-08-05T14:32:02.515Z,33.63
2022-08-05T14:34:35.171Z,33.44
2022-08-05T14:37:45.475Z,33.24
2022-08-05T14:40:32.411Z,33.14
2022-08-05T14:43:21.651Z,33.09
2022-08-05T14:46:30.959Z,33.10
2022-08-05T14:49:59.264Z,33.13
2022-08-05T14:52:56.800Z,33.00
2022-08-05T14:55:52.053Z,32.91
2022-08-05T14:58:47.724Z,32.96
2022-08-05T15:01:47.858Z,33.04
2022-08-05T15:04:37.393Z,33.09
2022-08-05T15:08:08.765Z,33.16
2022-08-05T15:10:33.792Z,33.23
2022-08-05T15:13:24.310Z,33.25
2022-08-05T15:16:30.867Z,33.20
2022-08-05T15:19:23.593Z,33.16
2022-08-05T15:22:13.080Z,33.13
2022-08-05T15:25:14.039Z,33.05
2022-08-05T15:28:17.938Z,33.03
2022-08-05T15:31:23.109Z,33.01
2022-08-05T15:34:32.991Z,33.00
2022-08-05T15:38:33.604Z,32.99
2022-08-05T15:41:03.091Z,32.94
2022-08-05T15:43:45.878Z,32.87
2022-08-05T15:46:37.705Z,32.77
2022-08-05T15:49:52.103Z,32.71
2022-08-05T15:52:53.303Z,32.68
2022-08-05T15:56:03.043Z,32.66
2022-08-05T15:58:52.146Z,32.60
2022-08-05T16:01:52.875Z,32.53
2022-08-05T16:04:44.710Z,32.37
2022-08-05T16:07:35.743Z,32.23
2022-08-05T16:10:25.486Z,32.09
2022-08-05T16:13:23.222Z,31.93
2022-08-05T16:16:12.442Z,31.80
2022-08-05T16:19:00.710Z,31.68
2022-08-05T16:22:00.136Z,31.52
2022-08-05T16:24:51.003Z,31.25
2022-08-05T16:28:00.292Z,30.98
2022-08-05T16:30:50.383Z,30.66
2022-08-05T16:33:41.691Z,30.37
2022-08-05T16:36:29.942Z,30.16
2022-08-05T16:39:20.688Z,29.99
2022-08-05T16:42:13.688Z,29.79
2022-08-05T16:46:06.860Z,29.60
2022-08-05T16:48:25.183Z,29.42
2022-08-05T16:51:14.724Z,29.25
2022-08-05T16:54:11.275Z,29.05
2022-08-05T16:57:06.772Z,28.81
2022-08-05T17:00:12.165Z,28.53
2022-08-05T17:03:15.434Z,28.28
2022-08-05T17:06:09.074Z,27.98
2022-08-05T17:08:58.835Z,27.69
2022-08-05T17:11:48.675Z,27.36
2022-08-05T17:14:38.296Z,27.05
2022-08-05T17:17:42.879Z,26.70
2022-08-05T17:20:32.556Z,26.35
2022-08-05T17:24:05.450Z,26.07
2022-08-05T17:26:34.125Z,25.77
2022-08-05T17:29:33.111Z,25.55
2022-08-05T17:32:28.448Z,25.31
2022-08-05T17:35:20.991Z,25.13
2022-08-05T17:38:10.075Z,24.96
2022-08-05T17:41:01.456Z,24.81
2022-08-05T17:43:53.390Z,24.67
2022-08-05T17:46:42.588Z,24.52
2022-08-05T17:49:59.640Z,24.40
2022-08-05T17:52:52.585Z,24.25
2022-08-05T17:55:42.722Z,24.14
2022-08-05T17:58:32.950Z,24.05
2022-08-05T18:01:20.753Z,23.99
2022-08-05T18:04:11.996Z,23.92
2022-08-05T18:07:01.911Z,23.84
2022-08-05T18:09:59.475Z,23.76
2022-08-05T18:12:50.037Z,23.67
2022-08-05T18:15:38.579Z,23.57
2022-08-05T18:18:26.591Z,23.37
2022-08-05T18:21:21.134Z,23.42
2022-08-05T18:24:12.548Z,24.25
2022-08-05T18:27:02.300Z,24.14
2022-08-05T18:29:54.370Z,23.81
2022-08-05T18:32:42.675Z,24.30
2022-08-05T18:35:49.759Z,24.28
2022-08-05T18:38:50.074Z,24.16
2022-08-05T18:41:55.342Z,23.46
2022-08-05T18:44:56.247Z,23.23
2022-08-05T18:47:44.518Z,23.79
2022-08-05T18:50:55.406Z,24.17
2022-08-05T18:53:50.954Z,24.39
2022-08-05T18:56:39.156Z,24.52
2022-08-05T18:59:42.632Z,24.07
2022-08-05T19:02:38.161Z,23.50
2022-08-05T19:06:11.283Z,23.89
2022-08-05T19:08:35.665Z,24.22
2022-08-05T19:11:28.378Z,24.39
2022-08-05T19:14:37.754Z,24.52
2022-08-05T19:17:59.080Z,24.66
2022-08-05T19:20:47.142Z,24.72
2022-08-05T19:24:07.615Z,24.84
2022-08-05T19:26:54.834Z,24.35
2022-08-05T19:29:44.105Z,23.48
2022-08-05T19:32:32.468Z,23.70
2022-08-05T19:35:21.763Z,24.22
2022-08-05T19:38:10.174Z,24.63
2022-08-05T19:41:01.708Z,24.92
2022-08-05T19:44:04.765Z,25.07
2022-08-05T19:46:57.711Z,24.84
2022-08-05T19:49:48.265Z,24.88
2022-08-05T19:52:36.285Z,25.04
2022-08-05T19:56:14.353Z,25.08
2022-08-05T19:58:53.098Z,24.59
2022-08-05T20:01:41.495Z,23.95
2022-08-05T20:04:32.113Z,24.30
2022-08-05T20:07:46.618Z,24.64
2022-08-05T20:10:28.330Z,24.87
2022-08-05T20:13:17.711Z,24.99
2022-08-05T20:16:06.580Z,24.99
2022-08-05T20:18:55.542Z,24.98
2022-08-05T20:21:43.665Z,25.04
2022-08-05T20:24:34.572Z,25.07
2022-08-05T20:27:27.419Z,25.16
2022-08-05T20:30:30.653Z,25.23
2022-08-05T20:33:18.505Z,25.35
2022-08-05T20:36:11.210Z,25.46
2022-08-05T20:38:59.360Z,25.49
2022-08-05T20:41:48.188Z,25.55
2022-08-05T20:44:37.968Z,25.58
2022-08-05T20:47:32.149Z,25.62
2022-08-05T20:50:20.846Z,25.24
2022-08-05T20:53:15.931Z,24.48
2022-08-05T20:56:28.744Z,24.85
2022-08-05T20:59:26.195Z,25.14
2022-08-05T21:02:18.076Z,25.21
2022-08-05T21:05:06.963Z,25.22
2022-08-05T21:07:57.727Z,25.27
2022-08-05T21:10:49.105Z,25.26
2022-08-05T21:13:47.959Z,25.24
2022-08-05T21:16:45.620Z,25.21
2022-08-05T21:19:46.710Z,25.30
2022-08-05T21:22:38.752Z,25.24
2022-08-05T21:25:33.721Z,25.22
2022-08-05T21:28:23.953Z,25.17
2022-08-05T21:31:19.664Z,25.17
2022-08-05T21:34:08.623Z,25.16
2022-08-05T21:36:58.964Z,25.18
2022-08-05T21:39:46.853Z,25.14
2022-08-05T21:42:43.750Z,25.11
2022-08-05T21:45:51.524Z,25.10
2022-08-05T21:48:41.701Z,25.10
2022-08-05T21:52:21.871Z,25.12
2022-08-05T21:54:41.511Z,25.18
2022-08-05T21:57:31.209Z,25.16
2022-08-05T22:00:20.147Z,25.09
2022-08-05T22:03:15.332Z,25.11
2022-08-05T22:06:06.649Z,25.11
2022-08-05T22:08:56.766Z,25.05
2022-08-05T22:11:46.758Z,25.01
2022-08-05T22:14:37.931Z,25.03
2022-08-05T22:17:27.012Z,25.00
2022-08-05T22:20:16.659Z,24.93
2022-08-05T22:23:24.922Z,24.95
2022-08-05T22:26:51.741Z,24.92
2022-08-05T22:29:39.886Z,24.89
2022-08-05T22:32:28.869Z,24.89
2022-08-05T22:35:17.654Z,24.84
2022-08-05T22:38:06.985Z,24.85
2022-08-05T22:40:58.298Z,24.85
2022-08-05T22:43:49.962Z,24.80
2022-08-05T22:46:40.940Z,24.85
2022-08-05T22:50:20.984Z,24.87
2022-08-05T22:52:37.397Z,24.82
2022-08-05T22:55:26.064Z,24.76
2022-08-05T22:58:14.693Z,24.66
2022-08-05T23:01:03.409Z,24.66
2022-08-05T23:03:58.460Z,24.70
2022-08-05T23:06:48.012Z,24.72
2022-08-05T23:09:58.229Z,24.68
2022-08-05T23:12:44.118Z,24.69
2022-08-05T23:15:35.245Z,24.69
2022-08-05T23:18:24.572Z,24.66
2022-08-05T23:21:12.819Z,24.60
2022-08-05T23:24:11.119Z,24.58
2022-08-05T23:26:59.658Z,24.51
2022-08-05T23:29:50.578Z,24.44
2022-08-05T23:32:45.149Z,24.45
2022-08-05T23:35:34.344Z,24.45
2022-08-05T23:38:22.669Z,24.46
2022-08-05T23:41:11.548Z,24.41
2022-08-05T23:44:06.215Z,24.46
2022-08-05T23:46:57.238Z,24.48
2022-08-05T23:49:46.524Z,24.49
2022-08-05T23:52:36.020Z,24.36
2022-08-05T23:55:31.063Z,24.34
2022-08-05T23:58:31.292Z,24.34
